Time;durP1;ratioP1;P1;durP2;ratioP2;P2;SDS_P1;SDS_P2;PMS_P1;PMS_P2;Temp;Humidity;BMP_temperature;BMP_pressure;BME280_temperature;BME280_humidity;BME280_pressure;Samples;Min_cycle;Max_cycle;Signal;HPM_P1;HPM_P2
2021/05/14 00:01:33;;;;;;;1.95;1.02;;;11.20;59.80;;;;;;5090888;28;20189;-70
2021/05/14 00:03:59;;;;;;;2.97;1.30;;;11.20;59.40;;;;;;5091488;28;20200;-70
2021/05/14 00:06:26;;;;;;;3.00;0.90;;;11.20;58.60;;;;;;5090416;28;20299;-70
2021/05/14 00:08:53;;;;;;;1.70;0.88;;;11.20;58.90;;;;;;5090979;28;20224;-70
2021/05/14 00:11:20;;;;;;;1.90;1.20;;;11.30;59.50;;;;;;5089160;28;20268;-69
2021/05/14 00:13:46;;;;;;;1.85;1.48;;;11.30;58.40;;;;;;5091527;28;20197;-69
2021/05/14 00:16:13;;;;;;;2.40;1.17;;;11.30;58.50;;;;;;5090751;28;20185;-70
2021/05/14 00:18:45;;;;;;;3.17;1.60;;;11.20;58.20;;;;;;5091122;28;20193;-70
2021/05/14 00:21:11;;;;;;;4.40;1.65;;;11.20;58.20;;;;;;5087590;28;20541;-69
2021/05/14 00:23:39;;;;;;;2.80;1.67;;;11.20;58.30;;;;;;5091231;28;20189;-70
2021/05/14 00:26:08;;;;;;;1.92;1.10;;;11.10;58.00;;;;;;5090864;28;20547;-69
2021/05/14 00:28:34;;;;;;;2.03;1.20;;;11.00;58.00;;;;;;5090730;28;20217;-70
2021/05/14 00:31:01;;;;;;;2.55;1.33;;;10.90;58.20;;;;;;5090635;28;20722;-70
2021/05/14 00:33:27;;;;;;;2.20;1.00;;;10.90;58.30;;;;;;5090935;28;20185;-70
2021/05/14 00:36:00;;;;;;;6.40;1.33;;;10.80;58.30;;;;;;5090842;28;20186;-69
2021/05/14 00:38:27;;;;;;;1.60;0.80;;;10.80;58.70;;;;;;5087239;28;20216;-70
2021/05/14 00:40:53;;;;;;;4.10;1.38;;;10.80;58.50;;;;;;5090439;28;20219;-69
2021/05/14 00:43:20;;;;;;;1.80;0.90;;;10.80;58.90;;;;;;5092270;28;20201;-70
2021/05/14 00:45:47;;;;;;;2.22;1.02;;;10.80;59.10;;;;;;5092146;28;20181;-70
2021/05/14 00:48:13;;;;;;;2.25;1.20;;;10.80;59.90;;;;;;5092380;28;20274;-69
2021/05/14 00:50:40;;;;;;;1.73;1.05;;;10.80;59.50;;;;;;5091021;28;20600;-69
2021/05/14 00:53:08;;;;;;;1.63;1.10;;;10.80;59.60;;;;;;5092651;28;20189;-70
2021/05/14 00:55:34;;;;;;;3.13;2.00;;;10.80;59.40;;;;;;5091979;28;20271;-69
2021/05/14 00:58:02;;;;;;;3.05;1.40;;;10.70;59.00;;;;;;5092460;28;20215;-70
2021/05/14 01:00:30;;;;;;;2.38;1.25;;;10.70;59.40;;;;;;5092227;28;20589;-69
2021/05/14 01:02:56;;;;;;;2.30;1.02;;;10.70;59.80;;;;;;5092436;28;20204;-69
2021/05/14 01:05:24;;;;;;;2.33;1.50;;;10.60;60.00;;;;;;5091509;28;20188;-70
2021/05/14 01:07:50;;;;;;;2.50;1.17;;;10.50;59.90;;;;;;5092007;28;20248;-69
2021/05/14 01:10:18;;;;;;;2.00;1.42;;;10.40;60.60;;;;;;5091896;28;20189;-69
2021/05/14 01:12:45;;;;;;;2.10;1.27;;;10.40;61.60;;;;;;5092287;28;20189;-69
2021/05/14 01:15:13;;;;;;;2.50;1.45;;;10.30;61.40;;;;;;5091473;28;20189;-71
2021/05/14 01:17:39;;;;;;;4.43;1.80;;;10.30;62.20;;;;;;5092128;28;20196;-69
2021/05/14 01:20:07;;;;;;;2.67;1.55;;;10.30;63.70;;;;;;5091766;28;20186;-69
2021/05/14 01:22:36;;;;;;;2.95;1.40;;;10.20;62.80;;;;;;5092302;28;20189;-70
2021/05/14 01:25:04;;;;;;;3.50;1.80;;;10.10;63.20;;;;;;5091575;28;20651;-69
2021/05/14 01:27:31;;;;;;;2.72;1.38;;;10.10;63.60;;;;;;5091836;28;20300;-70
2021/05/14 01:29:58;;;;;;;3.55;1.50;;;10.00;64.10;;;;;;5091662;28;20212;-69
2021/05/14 01:32:25;;;;;;;2.30;1.35;;;10.00;64.70;;;;;;5091887;28;20222;-69
2021/05/14 01:34:51;;;;;;;1.92;1.40;;;9.90;65.50;;;;;;5091128;28;20693;-69
2021/05/14 01:37:18;;;;;;;3.35;1.50;;;9.90;66.00;;;;;;5092024;28;20177;-69
2021/05/14 01:39:45;;;;;;;2.63;1.40;;;9.80;66.20;;;;;;5091835;28;20189;-69
2021/05/14 01:42:12;;;;;;;3.50;2.00;;;9.70;66.40;;;;;;5091461;28;20185;-70
2021/05/14 01:44:38;;;;;;;5.38;2.20;;;9.60;67.20;;;;;;5091751;28;20185;-69
2021/05/14 01:47:05;;;;;;;4.15;2.72;;;9.60;67.30;;;;;;5091037;28;20209;-69
2021/05/14 01:49:31;;;;;;;9.60;7.15;;;9.50;67.50;;;;;;5091890;28;20200;-70
2021/05/14 01:51:58;;;;;;;5.63;2.72;;;9.50;67.70;;;;;;5091358;28;20189;-69
2021/05/14 01:54:25;;;;;;;3.90;1.92;;;9.40;67.50;;;;;;5091011;28;20185;-69
2021/05/14 01:56:52;;;;;;;2.55;1.10;;;9.40;67.90;;;;;;5091498;28;20185;-69
2021/05/14 01:59:19;;;;;;;5.63;1.70;;;9.30;68.50;;;;;;5091864;28;20547;-69
2021/05/14 02:01:45;;;;;;;4.85;1.80;;;9.30;68.80;;;;;;5092730;28;20181;-69
2021/05/14 02:04:12;;;;;;;3.42;1.30;;;9.20;69.50;;;;;;5095474;28;20212;-69
2021/05/14 02:06:39;;;;;;;2.67;1.30;;;9.20;69.70;;;;;;5095191;28;20232;-70
2021/05/14 02:09:06;;;;;;;4.00;1.20;;;9.10;69.70;;;;;;5094995;28;20219;-71
2021/05/14 02:11:32;;;;;;;1.70;1.00;;;9.10;70.00;;;;;;5095517;28;20562;-70
2021/05/14 02:14:00;;;;;;;3.35;1.30;;;9.00;70.10;;;;;;5094863;28;20698;-70
2021/05/14 02:16:27;;;;;;;2.88;1.10;;;9.00;70.10;;;;;;5094959;28;20195;-69
2021/05/14 02:18:53;;;;;;;4.32;1.15;;;8.90;70.10;;;;;;5095274;28;20193;-69
2021/05/14 02:21:20;;;;;;;2.60;1.73;;;8.90;70.50;;;;;;5094597;28;20196;-70
2021/05/14 02:23:46;;;;;;;2.50;1.35;;;8.80;70.90;;;;;;5095020;28;20193;-69
2021/05/14 02:26:13;;;;;;;1.60;0.85;;;8.70;71.60;;;;;;5094343;28;20287;-70
2021/05/14 02:28:39;;;;;;;2.35;1.20;;;8.60;71.80;;;;;;5094856;28;20703;-70
2021/05/14 02:31:07;;;;;;;1.98;1.00;;;8.40;72.50;;;;;;5094334;28;20307;-69
2021/05/14 02:33:33;;;;;;;1.95;1.15;;;8.30;73.50;;;;;;5094841;28;20197;-69
2021/05/14 02:36:00;;;;;;;3.20;1.55;;;8.20;73.70;;;;;;5094215;28;20192;-69
2021/05/14 02:38:27;;;;;;;2.03;1.15;;;8.00;74.50;;;;;;5094608;28;20189;-69
2021/05/14 02:40:53;;;;;;;1.95;1.25;;;7.90;75.60;;;;;;5094368;28;20276;-70
2021/05/14 02:43:20;;;;;;;2.05;1.20;;;7.70;76.70;;;;;;5094232;28;20532;-69
2021/05/14 02:45:46;;;;;;;1.80;0.90;;;7.80;76.90;;;;;;5094714;28;20282;-69
2021/05/14 02:48:17;;;;;;;1.90;1.10;;;7.80;76.60;;;;;;5094328;28;20220;-69
2021/05/14 02:50:43;;;;;;;3.15;1.70;;;7.90;76.40;;;;;;5094076;28;20213;-70
2021/05/14 02:53:10;;;;;;;4.97;1.50;;;7.90;75.90;;;;;;5094341;28;20185;-69
2021/05/14 02:55:36;;;;;;;3.60;1.15;;;8.00;76.00;;;;;;5094133;28;20655;-70
2021/05/14 02:58:04;;;;;;;4.20;1.15;;;8.00;75.00;;;;;;5094604;28;20193;-70
2021/05/14 03:00:31;;;;;;;5.50;1.50;;;8.00;74.80;;;;;;5093979;28;20189;-69
2021/05/14 03:02:57;;;;;;;1.83;1.20;;;8.00;74.50;;;;;;5093623;28;20181;-69
2021/05/14 03:05:25;;;;;;;3.47;1.27;;;8.00;74.80;;;;;;5094256;28;20221;-69
2021/05/14 03:07:52;;;;;;;2.78;1.58;;;8.00;75.00;;;;;;5093117;28;20221;-71
2021/05/14 03:10:19;;;;;;;2.15;0.90;;;8.00;74.90;;;;;;5093655;28;20196;-69
2021/05/14 03:12:46;;;;;;;2.90;2.05;;;8.10;74.80;;;;;;5093877;28;20622;-69
2021/05/14 03:15:13;;;;;;;2.38;1.60;;;8.10;75.00;;;;;;5093357;28;20185;-69
2021/05/14 03:17:40;;;;;;;2.65;1.95;;;8.10;74.90;;;;;;5094195;28;20192;-70
2021/05/14 03:20:08;;;;;;;2.67;2.13;;;8.20;74.80;;;;;;5093835;28;20215;-70
2021/05/14 03:22:36;;;;;;;2.70;2.00;;;8.20;74.70;;;;;;5094019;28;20200;-69
2021/05/14 03:25:04;;;;;;;2.95;1.70;;;8.20;74.30;;;;;;5093395;28;20704;-70
2021/05/14 03:27:30;;;;;;;3.25;1.80;;;8.30;74.20;;;;;;5093710;28;20221;-69
2021/05/14 03:29:58;;;;;;;2.50;1.70;;;8.30;74.10;;;;;;5093059;28;20209;-69
2021/05/14 03:32:25;;;;;;;3.08;1.90;;;8.30;73.80;;;;;;5093698;28;20220;-70
2021/05/14 03:34:51;;;;;;;2.33;1.23;;;8.40;73.80;;;;;;5093406;28;20189;-71
2021/05/14 03:37:18;;;;;;;2.42;1.40;;;8.40;73.30;;;;;;5093834;28;20235;-69
2021/05/14 03:39:49;;;;;;;2.15;1.30;;;8.40;72.90;;;;;;5093444;28;20185;-69
2021/05/14 03:42:18;;;;;;;2.35;1.33;;;8.40;72.60;;;;;;5093536;28;20185;-69
2021/05/14 03:44:44;;;;;;;3.90;1.50;;;8.40;71.90;;;;;;5093290;28;20238;-69
2021/05/14 03:47:11;;;;;;;5.10;2.60;;;8.40;71.60;;;;;;5092996;28;20221;-70
2021/05/14 03:49:39;;;;;;;2.70;1.42;;;8.30;72.00;;;;;;5092808;28;20189;-69
2021/05/14 03:52:07;;;;;;;4.53;2.67;;;8.20;72.10;;;;;;5091117;28;20216;-69
2021/05/14 03:54:34;;;;;;;2.47;1.60;;;8.20;72.20;;;;;;5092381;28;20280;-69
2021/05/14 03:57:01;;;;;;;2.40;1.40;;;8.10;72.40;;;;;;5093440;28;20639;-69
2021/05/14 03:59:28;;;;;;;1.80;1.05;;;8.10;72.40;;;;;;5092802;28;20193;-70
2021/05/14 04:01:56;;;;;;;2.63;1.15;;;8.10;72.60;;;;;;5092928;28;20253;-69
2021/05/14 04:04:23;;;;;;;2.30;1.10;;;8.00;73.20;;;;;;5092642;28;20275;-70
2021/05/14 04:06:50;;;;;;;3.95;1.50;;;8.00;73.90;;;;;;5093356;28;20661;-69
2021/05/14 04:09:23;;;;;;;5.60;1.25;;;8.00;73.90;;;;;;5091890;28;20316;-69
2021/05/14 04:12:06;;;;;;;2.60;1.33;;;8.00;73.90;;;;;;5090986;28;20647;-69
2021/05/14 04:14:35;;;;;;;5.13;1.60;;;8.00;73.90;;;;;;5092410;28;20280;-70
2021/05/14 04:17:03;;;;;;;2.20;1.20;;;8.00;73.90;;;;;;5093361;28;20189;-69
2021/05/14 04:19:30;;;;;;;2.10;1.20;;;8.00;73.90;;;;;;5093225;28;20249;-69
2021/05/14 04:21:59;;;;;;;2.85;2.03;;;8.00;73.90;;;;;;5092983;28;20193;-70
2021/05/14 04:24:26;;;;;;;3.78;2.40;;;8.00;74.10;;;;;;5092103;28;20636;-70
2021/05/14 04:26:55;;;;;;;2.40;1.80;;;8.10;74.70;;;;;;5092484;28;20235;-69
2021/05/14 04:29:22;;;;;;;2.35;1.40;;;8.10;75.10;;;;;;5092642;28;20211;-70
2021/05/14 04:31:50;;;;;;;3.92;1.45;;;8.10;75.40;;;;;;5092216;28;20193;-70
2021/05/14 04:34:19;;;;;;;2.40;1.67;;;8.10;75.70;;;;;;5092584;28;20659;-69
2021/05/14 04:36:47;;;;;;;2.33;1.10;;;8.20;75.50;;;;;;5093212;28;20189;-70
2021/05/14 04:39:14;;;;;;;3.55;1.63;;;8.20;74.80;;;;;;5092132;28;20559;-70
2021/05/14 04:41:40;;;;;;;2.55;1.48;;;8.30;75.70;;;;;;5092548;28;20185;-69
2021/05/14 04:44:07;;;;;;;3.45;2.03;;;8.30;76.40;;;;;;5092314;28;20192;-70
2021/05/14 04:46:35;;;;;;;2.83;2.30;;;8.40;77.00;;;;;;5093090;28;20596;-70
2021/05/14 04:49:04;;;;;;;3.47;2.10;;;8.60;77.50;;;;;;5092495;28;20579;-69
2021/05/14 04:51:30;;;;;;;4.05;2.42;;;8.70;78.10;;;;;;5092122;28;20247;-70
2021/05/14 04:53:58;;;;;;;6.60;3.22;;;8.80;78.10;;;;;;5092669;28;20199;-70
2021/05/14 04:56:25;;;;;;;5.70;4.10;;;8.90;77.10;;;;;;5092513;28;20189;-70
2021/05/14 04:58:51;;;;;;;5.30;4.25;;;9.00;76.90;;;;;;5092955;28;20547;-70
2021/05/14 05:01:18;;;;;;;4.93;3.55;;;9.10;76.00;;;;;;5091827;28;20644;-69
2021/05/14 05:03:46;;;;;;;5.63;3.00;;;9.20;76.30;;;;;;5092414;28;20189;-70
2021/05/14 05:06:14;;;;;;;3.00;2.65;;;9.20;74.90;;;;;;5091905;28;20197;-69
2021/05/14 05:08:40;;;;;;;2.22;1.48;;;9.30;75.40;;;;;;5092073;28;20262;-69
2021/05/14 05:11:07;;;;;;;4.50;1.98;;;9.40;76.40;;;;;;5092133;28;20197;-71
2021/05/14 05:13:34;;;;;;;3.95;2.53;;;9.50;76.10;;;;;;5091106;28;20189;-69
2021/05/14 05:16:01;;;;;;;2.75;1.63;;;9.60;76.50;;;;;;5092775;28;20188;-69
2021/05/14 05:18:27;;;;;;;2.33;1.55;;;9.70;76.30;;;;;;5091822;28;20238;-70
2021/05/14 05:20:54;;;;;;;4.35;3.10;;;9.80;75.40;;;;;;5092322;28;20591;-70
2021/05/14 05:23:21;;;;;;;2.97;1.40;;;9.90;75.20;;;;;;5083932;28;20189;-69
2021/05/14 05:25:48;;;;;;;2.50;1.50;;;10.00;73.10;;;;;;5090085;28;20220;-71
2021/05/14 05:28:15;;;;;;;3.25;1.88;;;10.10;73.10;;;;;;5089909;28;20220;-71
2021/05/14 05:30:41;;;;;;;3.45;1.40;;;10.10;72.20;;;;;;5089991;28;20582;-71
2021/05/14 05:33:08;;;;;;;3.08;1.50;;;10.10;72.20;;;;;;5092440;28;20284;-70
2021/05/14 05:35:36;;;;;;;2.50;1.48;;;10.00;72.40;;;;;;5074947;28;20201;-70
2021/05/14 05:38:04;;;;;;;1.90;1.30;;;10.00;72.40;;;;;;5094237;28;20224;-70
2021/05/14 05:40:31;;;;;;;2.47;1.60;;;10.00;72.80;;;;;;5094511;28;20522;-70
2021/05/14 05:42:59;;;;;;;3.80;2.15;;;10.00;73.60;;;;;;5093517;28;20212;-70
2021/05/14 05:45:25;;;;;;;5.57;2.40;;;10.00;73.70;;;;;;5093922;28;20193;-69
2021/05/14 05:47:51;;;;;;;7.65;2.15;;;10.00;74.40;;;;;;5094164;28;20252;-69
2021/05/14 05:50:18;;;;;;;3.55;2.35;;;10.00;75.40;;;;;;5093515;28;20181;-71
2021/05/14 05:52:46;;;;;;;2.95;1.92;;;10.10;76.60;;;;;;5093800;28;20201;-70
2021/05/14 05:55:13;;;;;;;3.47;1.98;;;10.20;76.70;;;;;;5091115;28;20228;-70
2021/05/14 05:57:41;;;;;;;2.58;1.65;;;10.30;77.30;;;;;;5094310;28;20212;-70
2021/05/14 06:00:15;;;;;;;2.65;1.80;;;10.30;77.10;;;;;;5093498;28;20188;-70
2021/05/14 06:02:42;;;;;;;2.83;1.80;;;10.30;77.70;;;;;;5090191;28;20223;-70
2021/05/14 06:05:10;;;;;;;2.35;0.90;;;10.30;78.00;;;;;;5093438;28;20185;-70
2021/05/14 06:07:36;;;;;;;2.30;1.13;;;10.40;77.90;;;;;;5093964;28;20666;-70
2021/05/14 06:10:06;;;;;;;2.70;1.10;;;10.40;77.90;;;;;;5093260;28;20197;-71
2021/05/14 06:12:32;;;;;;;2.95;1.35;;;10.50;78.00;;;;;;5090532;28;20189;-69
2021/05/14 06:15:00;;;;;;;3.00;1.60;;;10.70;77.80;;;;;;5093856;28;20860;-70
2021/05/14 06:17:26;;;;;;;2.17;1.02;;;10.70;76.60;;;;;;5092859;28;20526;-70
2021/05/14 06:19:56;;;;;;;5.75;1.30;;;10.80;76.80;;;;;;5092917;28;20884;-71
2021/05/14 06:22:23;;;;;;;2.30;1.30;;;10.80;76.80;;;;;;5089645;28;20625;-70
2021/05/14 06:24:53;;;;;;;2.42;1.38;;;11.00;77.60;;;;;;5079590;28;20189;-72
2021/05/14 06:27:20;;;;;;;2.28;1.48;;;11.10;76.20;;;;;;5088157;28;20310;-72
2021/05/14 06:29:46;;;;;;;3.10;1.40;;;11.20;76.80;;;;;;5089896;28;20550;-69
2021/05/14 06:32:14;;;;;;;2.45;1.45;;;11.30;75.60;;;;;;5093438;28;20283;-70
2021/05/14 06:34:44;;;;;;;2.15;1.27;;;11.40;76.90;;;;;;5092034;28;20185;-70
2021/05/14 06:37:11;;;;;;;1.95;1.08;;;11.50;75.70;;;;;;5089436;28;20271;-70
2021/05/14 06:39:38;;;;;;;5.10;0.90;;;11.70;72.10;;;;;;5092934;28;20235;-70
2021/05/14 06:42:06;;;;;;;1.98;1.00;;;11.70;67.80;;;;;;5093235;28;20553;-70
2021/05/14 06:44:33;;;;;;;2.20;1.00;;;11.80;66.50;;;;;;5092863;28;20247;-70
2021/05/14 06:46:59;;;;;;;2.70;1.33;;;12.00;66.40;;;;;;5092269;28;20189;-70
2021/05/14 06:49:28;;;;;;;1.98;1.23;;;12.20;64.30;;;;;;5093000;28;20217;-70
2021/05/14 06:51:54;;;;;;;1.67;0.90;;;12.40;61.40;;;;;;5092491;28;20273;-70
2021/05/14 06:54:21;;;;;;;2.65;1.15;;;12.60;64.80;;;;;;5092540;28;20250;-71
2021/05/14 06:56:48;;;;;;;1.77;0.93;;;12.80;61.60;;;;;;5092587;28;20213;-69
2021/05/14 06:59:15;;;;;;;3.10;1.90;;;12.90;58.90;;;;;;5089609;28;20242;-77
2021/05/14 07:01:42;;;;;;;3.85;1.92;;;13.00;58.80;;;;;;5090862;28;20193;-72
2021/05/14 07:04:08;;;;;;;4.40;1.00;;;13.10;58.70;;;;;;5092287;28;20246;-74
2021/05/14 07:06:36;;;;;;;3.10;0.90;;;13.20;60.20;;;;;;5091895;28;20228;-73
2021/05/14 07:09:04;;;;;;;1.80;1.27;;;13.20;57.60;;;;;;5092332;28;20483;-74
2021/05/14 07:11:31;;;;;;;3.20;0.90;;;13.30;56.90;;;;;;5089761;28;20543;-74
2021/05/14 07:14:01;;;;;;;3.50;0.90;;;13.40;56.70;;;;;;5092544;28;20789;-71
2021/05/14 07:16:28;;;;;;;2.10;1.17;;;13.50;56.10;;;;;;5091637;28;20439;-71
2021/05/14 07:19:06;;;;;;;1.80;0.90;;;13.70;56.90;;;;;;5091720;28;20427;-73
2021/05/14 07:21:33;;;;;;;2.72;1.10;;;13.90;56.90;;;;;;5092529;28;20446;-71
2021/05/14 07:24:02;;;;;;;1.60;0.80;;;14.00;57.70;;;;;;5092566;28;20186;-71
2021/05/14 07:26:29;;;;;;;2.23;1.20;;;14.20;57.70;;;;;;5091753;28;20541;-72
2021/05/14 07:28:57;;;;;;;1.97;0.90;;;14.30;54.80;;;;;;5090164;28;20537;-72
2021/05/14 07:31:24;;;;;;;1.60;0.80;;;14.40;55.00;;;;;;5089632;28;20475;-72
2021/05/14 07:33:56;;;;;;;3.70;1.50;;;14.50;54.10;;;;;;5092306;28;20514;-71
2021/05/14 07:36:24;;;;;;;2.10;1.30;;;14.70;54.50;;;;;;5091454;28;20427;-71
2021/05/14 07:38:51;;;;;;;2.40;1.07;;;14.80;55.30;;;;;;5087420;28;20501;-72
2021/05/14 07:41:19;;;;;;;1.40;0.60;;;15.00;55.60;;;;;;5091210;28;20435;-72
2021/05/14 07:43:46;;;;;;;2.80;2.13;;;15.20;55.90;;;;;;5089473;28;20552;-80
2021/05/14 07:46:15;;;;;;;3.70;1.50;;;15.30;54.40;;;;;;5090989;28;20510;-78
2021/05/14 07:48:41;;;;;;;2.93;0.80;;;15.50;54.70;;;;;;5091552;28;20474;-72
2021/05/14 07:51:09;;;;;;;2.10;1.10;;;15.70;54.20;;;;;;5092196;28;20518;-72
2021/05/14 07:53:36;;;;;;;2.30;0.70;;;15.80;53.10;;;;;;5087451;28;20880;-72
2021/05/14 07:56:04;;;;;;;1.80;1.00;;;15.80;51.40;;;;;;5090711;28;20467;-71
2021/05/14 07:58:31;;;;;;;2.30;1.13;;;16.00;50.60;;;;;;5090655;28;20462;-72
2021/05/14 08:00:58;;;;;;;2.30;0.90;;;15.90;46.80;;;;;;5086829;28;20431;-70
2021/05/14 08:03:24;;;;;;;1.57;0.73;;;15.80;46.40;;;;;;5090922;28;20538;-72
2021/05/14 08:05:51;;;;;;;5.43;1.10;;;15.80;47.00;;;;;;5090093;28;20526;-71
2021/05/14 08:08:19;;;;;;;2.87;0.70;;;15.90;48.00;;;;;;5091100;28;20561;-71
2021/05/14 08:10:46;;;;;;;2.43;0.80;;;16.00;49.10;;;;;;5091315;28;20439;-72
2021/05/14 08:13:13;;;;;;;4.97;0.97;;;16.10;47.20;;;;;;5090997;28;20520;-71
2021/05/14 08:15:40;;;;;;;2.27;0.77;;;16.00;45.40;;;;;;5090449;28;20473;-72
2021/05/14 08:18:07;;;;;;;4.30;1.30;;;16.10;48.30;;;;;;5091147;28;20470;-71
2021/05/14 08:20:34;;;;;;;4.33;0.97;;;16.20;48.40;;;;;;5086190;28;20439;-72
2021/05/14 08:23:01;;;;;;;4.13;0.87;;;16.40;47.30;;;;;;5090066;28;20461;-72
2021/05/14 08:25:28;;;;;;;2.37;1.00;;;16.60;47.60;;;;;;5090090;28;20450;-72
2021/05/14 08:27:55;;;;;;;2.20;1.00;;;16.80;47.20;;;;;;5089702;28;20479;-72
2021/05/14 08:30:22;;;;;;;1.60;0.70;;;17.00;47.40;;;;;;5089738;28;20969;-72
2021/05/14 08:32:49;;;;;;;1.50;0.60;;;17.20;45.80;;;;;;5089580;28;20527;-72
2021/05/14 08:35:16;;;;;;;2.57;1.33;;;17.30;43.60;;;;;;5089832;28;20482;-72
2021/05/14 08:37:46;;;;;;;2.30;1.57;;;17.30;42.50;;;;;;5090027;28;20446;-72
2021/05/14 08:40:14;;;;;;;3.10;1.10;;;17.40;44.80;;;;;;5089405;28;20443;-72
2021/05/14 08:42:42;;;;;;;1.67;0.67;;;17.60;45.50;;;;;;5090088;28;20439;-72
2021/05/14 08:45:12;;;;;;;2.00;0.70;;;17.90;46.50;;;;;;5089948;28;20435;-72
2021/05/14 08:47:40;;;;;;;1.80;0.60;;;18.00;39.50;;;;;;5089451;28;20476;-72
2021/05/14 08:50:11;;;;;;;1.70;0.60;;;18.10;42.40;;;;;;5089845;28;20439;-72
2021/05/14 08:52:40;;;;;;;1.67;0.80;;;18.40;41.80;;;;;;5090619;28;20462;-73
2021/05/14 08:55:09;;;;;;;1.50;0.60;;;18.50;40.50;;;;;;5089328;28;20427;-72
2021/05/14 08:57:39;;;;;;;2.83;0.80;;;18.50;39.40;;;;;;5090455;28;20438;-71
2021/05/14 09:00:09;;;;;;;1.50;0.60;;;18.70;41.10;;;;;;5090081;28;20558;-72
2021/05/14 09:02:36;;;;;;;2.27;0.70;;;19.10;42.20;;;;;;5088943;28;21022;-73
2021/05/14 09:05:23;;;;;;;2.13;0.60;;;19.50;42.50;;;;;;5086074;28;20431;-72
2021/05/14 09:07:51;;;;;;;1.90;0.60;;;19.80;40.60;;;;;;5089279;28;20903;-72
2021/05/14 09:10:19;;;;;;;3.40;0.70;;;20.00;38.70;;;;;;5086296;28;20771;-72
2021/05/14 09:12:47;;;;;;;2.80;1.13;;;20.00;38.90;;;;;;5093613;28;20512;-71
2021/05/14 09:15:27;;;;;;;2.93;2.23;;;19.90;39.30;;;;;;5093691;28;20948;-72
2021/05/14 09:18:11;;;;;;;2.67;1.33;;;19.90;39.00;;;;;;5092547;28;20430;-71
2021/05/14 09:20:40;;;;;;;1.60;0.60;;;19.90;38.50;;;;;;5089406;28;20511;-72
2021/05/14 09:23:32;;;;;;;3.43;0.67;;;19.80;38.20;;;;;;5090351;28;20446;-71
2021/05/14 09:26:00;;;;;;;1.60;0.60;;;19.70;37.90;;;;;;5091295;28;20521;-71
2021/05/14 09:28:28;;;;;;;2.20;0.60;;;19.60;37.20;;;;;;5093521;28;20478;-70
2021/05/14 09:31:13;;;;;;;1.70;0.60;;;19.60;38.80;;;;;;5093320;28;20463;-73
2021/05/14 09:33:41;;;;;;;1.80;0.60;;;19.70;37.70;;;;;;5093025;28;20471;-73
2021/05/14 09:36:10;;;;;;;2.20;1.10;;;19.80;38.50;;;;;;5093476;28;20435;-73
2021/05/14 09:38:48;;;;;;;1.83;0.60;;;19.80;33.20;;;;;;5090887;28;20438;-72
2021/05/14 09:41:39;;;;;;;1.70;0.63;;;19.70;32.20;;;;;;5092722;28;20426;-72
2021/05/14 09:44:07;;;;;;;1.80;0.80;;;19.50;34.10;;;;;;5088467;28;20482;-72
2021/05/14 09:46:39;;;;;;;2.03;0.70;;;19.40;36.80;;;;;;5093972;28;20442;-72
2021/05/14 09:49:07;;;;;;;1.40;0.60;;;19.50;39.00;;;;;;5094918;28;20485;-72
2021/05/14 09:51:44;;;;;;;1.60;0.53;;;19.50;39.20;;;;;;5094307;28;20435;-72
2021/05/14 09:54:28;;;;;;;3.67;0.70;;;19.50;39.10;;;;;;5092073;28;20476;-72
2021/05/14 09:57:17;;;;;;;1.70;0.80;;;19.50;39.70;;;;;;5094101;28;20434;-73
2021/05/14 09:59:46;;;;;;;3.30;1.23;;;19.60;40.70;;;;;;5092746;28;20476;-72
2021/05/14 10:02:23;;;;;;;1.70;0.70;;;19.70;40.70;;;;;;5088658;28;21006;-72
2021/05/14 10:04:50;;;;;;;1.47;0.60;;;19.90;40.00;;;;;;5093956;28;20505;-72
2021/05/14 10:07:19;;;;;;;4.57;0.70;;;20.00;38.60;;;;;;5093104;28;20928;-72
2021/05/14 10:09:50;;;;;;;12.03;1.13;;;20.00;38.40;;;;;;5089263;28;20540;-72
2021/05/14 10:12:19;;;;;;;8.00;1.07;;;20.10;38.20;;;;;;5090003;28;21010;-72
2021/05/14 10:14:48;;;;;;;5.90;0.63;;;20.10;37.80;;;;;;5090046;28;20858;-72
2021/05/14 10:17:15;;;;;;;1.83;0.60;;;20.20;37.70;;;;;;5091791;28;20431;-72
2021/05/14 10:19:44;;;;;;;1.60;0.53;;;20.30;37.20;;;;;;5091880;28;20451;-72
2021/05/14 10:22:11;;;;;;;1.93;1.00;;;20.40;37.70;;;;;;5091620;28;20772;-72
2021/05/14 10:24:43;;;;;;;1.90;0.60;;;20.50;38.10;;;;;;5091477;28;20472;-72
2021/05/14 10:27:18;;;;;;;1.40;0.50;;;20.50;37.70;;;;;;5089423;28;20526;-73
2021/05/14 10:29:46;;;;;;;2.20;1.27;;;20.50;38.20;;;;;;5090874;28;20493;-73
2021/05/14 10:32:13;;;;;;;2.17;0.90;;;20.40;37.70;;;;;;5089130;28;20427;-72
2021/05/14 10:34:42;;;;;;;1.63;0.60;;;20.40;39.50;;;;;;5092713;28;20948;-72
2021/05/14 10:37:09;;;;;;;1.40;0.50;;;20.40;38.90;;;;;;5089720;28;20439;-72
2021/05/14 10:39:40;;;;;;;2.00;0.60;;;20.60;41.10;;;;;;5091648;28;20454;-73
2021/05/14 10:42:13;;;;;;;2.90;0.60;;;20.90;42.00;;;;;;5088987;28;20787;-73
2021/05/14 10:44:45;;;;;;;2.30;1.10;;;21.10;40.30;;;;;;5087127;28;20443;-72
2021/05/14 10:47:46;;;;;;;4.40;3.13;;;21.20;37.40;;;;;;5091207;28;20454;-73
2021/05/14 10:50:16;;;;;;;1.80;0.70;;;21.20;35.80;;;;;;5088860;28;20435;-72
2021/05/14 10:53:16;;;;;;;2.57;0.80;;;21.00;34.80;;;;;;5091429;28;20446;-72
2021/05/14 10:55:44;;;;;;;1.80;0.60;;;20.90;34.50;;;;;;5090554;28;20439;-73
2021/05/14 10:58:47;;;;;;;3.50;0.90;;;20.60;32.00;;;;;;5091463;28;20450;-72
2021/05/14 11:01:32;;;;;;;1.50;0.60;;;20.40;33.50;;;;;;5088859;28;20447;-72
2021/05/14 11:04:00;;;;;;;2.70;0.60;;;20.20;34.60;;;;;;5091749;28;20439;-72
2021/05/14 11:06:27;;;;;;;2.03;0.70;;;20.00;35.10;;;;;;5091155;28;21098;-72
2021/05/14 11:09:03;;;;;;;1.80;0.67;;;19.90;35.60;;;;;;5091803;28;20973;-72
2021/05/14 11:12:05;;;;;;;1.47;0.60;;;19.80;35.80;;;;;;5090942;28;20431;-72
2021/05/14 11:14:42;;;;;;;1.67;0.60;;;19.70;36.10;;;;;;5091363;28;20999;-71
2021/05/14 11:17:10;;;;;;;2.30;0.63;;;19.60;38.00;;;;;;5091160;28;20496;-72
2021/05/14 11:19:46;;;;;;;2.80;1.07;;;19.60;37.80;;;;;;5092109;28;20443;-72
2021/05/14 11:22:14;;;;;;;1.60;0.60;;;19.60;38.70;;;;;;5091357;28;20443;-72
2021/05/14 11:24:43;;;;;;;2.67;0.60;;;19.60;38.20;;;;;;5091309;28;20944;-72
2021/05/14 11:27:13;;;;;;;1.57;0.50;;;19.60;38.60;;;;;;5087705;28;20923;-72
2021/05/14 11:29:47;;;;;;;1.67;0.70;;;19.60;37.50;;;;;;5089618;28;20469;-72
2021/05/14 11:32:19;;;;;;;1.40;0.50;;;19.50;38.10;;;;;;5088667;28;20442;-73
2021/05/14 11:34:58;;;;;;;7.83;0.97;;;19.50;39.20;;;;;;5090682;28;20447;-72
2021/05/14 11:37:26;;;;;;;1.63;0.50;;;19.60;38.30;;;;;;5090011;28;20439;-72
2021/05/14 11:39:53;;;;;;;2.43;0.60;;;19.60;36.60;;;;;;5091022;28;20538;-71
2021/05/14 11:42:23;;;;;;;2.60;0.70;;;19.60;37.30;;;;;;5091528;28;20913;-71
2021/05/14 11:45:00;;;;;;;3.47;0.60;;;19.70;38.10;;;;;;5092055;28;20470;-71
2021/05/14 11:47:29;;;;;;;1.40;0.50;;;19.90;38.00;;;;;;5092518;28;20427;-72
2021/05/14 11:49:57;;;;;;;2.63;0.60;;;20.00;38.50;;;;;;5091542;28;20490;-72
2021/05/14 11:52:38;;;;;;;1.70;0.90;;;20.20;37.40;;;;;;5087985;28;20755;-72
2021/05/14 11:55:11;;;;;;;1.40;0.80;;;20.20;38.20;;;;;;5092280;28;20536;-72
2021/05/14 11:57:39;;;;;;;3.60;1.80;;;20.30;38.70;;;;;;5092239;28;20459;-73
2021/05/14 12:00:09;;;;;;;3.20;1.90;;;20.40;38.10;;;;;;5091963;28;20577;-73
2021/05/14 12:02:38;;;;;;;1.60;0.63;;;20.40;37.90;;;;;;5088658;28;20494;-73
2021/05/14 12:05:05;;;;;;;1.40;0.50;;;20.50;37.80;;;;;;5082482;28;20435;-72
2021/05/14 12:07:32;;;;;;;2.20;0.70;;;20.60;38.00;;;;;;5090212;28;20865;-72
2021/05/14 12:10:00;;;;;;;3.03;0.70;;;20.80;37.60;;;;;;5089834;28;20573;-72
2021/05/14 12:12:26;;;;;;;1.83;0.60;;;21.00;36.30;;;;;;5088702;28;20526;-72
2021/05/14 12:15:22;;;;;;;1.90;0.60;;;21.20;37.10;;;;;;5089904;28;20471;-72
2021/05/14 12:17:50;;;;;;;5.07;2.43;;;21.40;37.10;;;;;;5087571;28;20475;-72
2021/05/14 12:20:38;;;;;;;2.10;1.00;;;21.70;35.70;;;;;;5089488;28;20530;-72
2021/05/14 12:23:06;;;;;;;3.10;1.80;;;22.20;35.20;;;;;;5088855;28;20423;-72
2021/05/14 12:25:45;;;;;;;1.80;0.60;;;22.50;34.20;;;;;;5090151;28;20529;-71
2021/05/14 12:28:28;;;;;;;1.70;0.83;;;22.70;32.50;;;;;;5081291;28;20921;-71
2021/05/14 12:30:56;;;;;;;4.37;0.70;;;22.80;29.80;;;;;;5087605;28;20470;-72
2021/05/14 12:33:23;;;;;;;2.03;0.60;;;22.90;29.20;;;;;;5087475;28;21016;-71
2021/05/14 12:36:00;;;;;;;1.70;0.67;;;22.90;30.90;;;;;;5084119;28;20450;-70
2021/05/14 12:38:44;;;;;;;1.40;0.53;;;23.10;33.40;;;;;;5088808;28;20501;-72
2021/05/14 12:41:25;;;;;;;1.93;0.80;;;23.10;33.20;;;;;;5088515;28;20471;-71
2021/05/14 12:44:12;;;;;;;2.67;0.60;;;23.10;32.80;;;;;;5086360;28;20458;-71
2021/05/14 12:47:05;;;;;;;2.00;0.97;;;23.10;31.10;;;;;;5088884;28;20933;-72
2021/05/14 12:49:33;;;;;;;1.67;0.70;;;22.90;31.30;;;;;;5088412;28;20486;-71
2021/05/14 12:52:04;;;;;;;1.60;0.60;;;22.80;30.90;;;;;;5089250;28;20998;-70
2021/05/14 12:54:32;;;;;;;2.37;0.50;;;22.70;32.10;;;;;;5089525;28;20478;-71
2021/05/14 12:56:58;;;;;;;1.40;0.50;;;22.40;32.00;;;;;;5087299;28;20443;-71
2021/05/14 12:59:25;;;;;;;3.30;0.67;;;22.20;32.30;;;;;;5089354;28;20435;-71
2021/05/14 13:01:53;;;;;;;1.40;0.50;;;22.00;31.00;;;;;;5088319;28;20457;-71